createdAt,value
2019-04-27T00:01:28.525Z,23.53
2019-04-27T00:04:19.202Z,21.67
2019-04-27T00:06:51.434Z,21.55
2019-04-27T00:09:34.109Z,22.57
2019-04-27T00:12:07.821Z,22.87
2019-04-27T00:14:39.131Z,22.62
2019-04-27T00:17:43.522Z,23.40
2019-04-27T00:20:27.147Z,22.77
2019-04-27T00:23:01.352Z,25.03
2019-04-27T00:25:32.916Z,22.35
2019-04-27T00:28:05.484Z,21.93
2019-04-27T00:30:38.067Z,21.77
2019-04-27T00:33:09.325Z,19.87
2019-04-27T00:36:05.320Z,21.90
2019-04-27T00:38:55.568Z,21.15
2019-04-27T00:41:27.899Z,19.48
2019-04-27T00:43:59.136Z,19.12
2019-04-27T00:46:30.388Z,20.27
2019-04-27T00:49:03.584Z,18.98
2019-04-27T00:51:34.641Z,16.73
2019-04-27T00:54:05.888Z,19.12
2019-04-27T00:56:52.965Z,15.78
2019-04-27T00:59:43.303Z,17.30
2019-04-27T01:02:38.331Z,18.67
2019-04-27T01:05:29.316Z,16.95
2019-04-27T01:08:00.669Z,16.97
2019-04-27T01:10:33.466Z,17.40
2019-04-27T01:13:04.832Z,17.80
2019-04-27T01:15:36.015Z,17.25
2019-04-27T01:18:14.526Z,16.45
2019-04-27T01:20:40.124Z,18.82
2019-04-27T01:23:11.290Z,17.83
2019-04-27T01:25:59.720Z,18.15
2019-04-27T01:28:35.776Z,18.27
2019-04-27T01:31:09.318Z,20.35
2019-04-27T01:33:40.663Z,17.45
2019-04-27T01:36:11.843Z,17.77
2019-04-27T01:38:42.985Z,16.93
2019-04-27T01:41:14.232Z,16.13
2019-04-27T01:43:45.561Z,19.37
2019-04-27T01:46:16.737Z,19.73
2019-04-27T01:48:48.995Z,19.57
2019-04-27T01:51:21.101Z,20.33
2019-04-27T01:53:52.466Z,18.45
2019-04-27T01:56:23.675Z,19.73
2019-04-27T01:58:54.910Z,19.95
2019-04-27T02:01:48.944Z,23.70
2019-04-27T02:04:39.603Z,18.20
2019-04-27T02:07:11.869Z,20.70
2019-04-27T02:09:43.076Z,20.68
2019-04-27T02:12:14.340Z,25.17
2019-04-27T02:14:45.542Z,27.07
2019-04-27T02:17:18.587Z,24.07
2019-04-27T02:19:50.048Z,24.95
2019-04-27T02:22:22.324Z,28.33
2019-04-27T02:24:53.518Z,30.43
2019-04-27T02:27:26.470Z,29.02
2019-04-27T02:30:22.827Z,31.75
2019-04-27T02:33:20.255Z,33.50
2019-04-27T02:35:51.685Z,34.60
2019-04-27T02:38:22.997Z,36.95
2019-04-27T02:40:59.862Z,33.83
2019-04-27T02:43:50.258Z,37.85
2019-04-27T02:46:21.535Z,34.98
2019-04-27T02:48:59.877Z,40.12
2019-04-27T02:51:42.525Z,38.13
2019-04-27T02:54:12.590Z,42.70
2019-04-27T02:56:44.180Z,40.20
2019-04-27T02:59:15.480Z,41.92
2019-04-27T03:01:55.798Z,46.02
2019-04-27T03:04:27.083Z,37.25
2019-04-27T03:07:00.275Z,37.55
2019-04-27T03:09:32.805Z,38.28
2019-04-27T03:12:04.930Z,39.85
2019-04-27T03:14:53.775Z,41.18
2019-04-27T03:17:39.513Z,41.58
2019-04-27T03:20:17.007Z,42.73
2019-04-27T03:22:56.265Z,41.75
2019-04-27T03:25:40.190Z,42.93
2019-04-27T03:28:13.098Z,38.97
2019-04-27T03:30:44.300Z,42.58
2019-04-27T03:33:15.726Z,38.07
2019-04-27T03:35:46.946Z,44.50
2019-04-27T03:38:19.738Z,36.23
2019-04-27T03:40:52.999Z,39.93
2019-04-27T03:43:25.467Z,46.33
2019-04-27T03:45:56.644Z,40.30
2019-04-27T03:48:29.454Z,41.30
2019-04-27T03:51:20.010Z,40.25
2019-04-27T03:54:23.669Z,40.45
2019-04-27T03:57:02.378Z,41.42
2019-04-27T03:59:51.433Z,37.17
2019-04-27T04:02:22.675Z,36.80
2019-04-27T04:04:53.891Z,36.63
2019-04-27T04:07:25.254Z,40.43
2019-04-27T04:09:56.538Z,37.93
2019-04-27T04:12:33.474Z,36.85
2019-04-27T04:15:05.476Z,40.25
2019-04-27T04:17:36.714Z,35.50
2019-04-27T04:20:10.195Z,34.95
2019-04-27T04:22:41.109Z,35.45
2019-04-27T04:25:12.310Z,34.10
2019-04-27T04:27:43.494Z,33.90
2019-04-27T04:30:14.752Z,35.00
2019-04-27T04:32:46.042Z,35.23
2019-04-27T04:35:21.654Z,34.23
2019-04-27T04:37:53.495Z,37.50
2019-04-27T04:40:32.524Z,33.33
2019-04-27T04:43:15.161Z,32.73
2019-04-27T04:45:54.377Z,34.30
2019-04-27T04:48:25.711Z,37.35
2019-04-27T04:50:56.861Z,33.70
2019-04-27T04:53:29.295Z,30.60
2019-04-27T04:56:00.676Z,36.33
2019-04-27T04:58:32.467Z,33.95
2019-04-27T05:01:03.632Z,34.58
2019-04-27T05:03:36.476Z,31.45
2019-04-27T05:06:08.829Z,32.50
2019-04-27T05:08:40.136Z,31.20
2019-04-27T05:11:11.380Z,32.35
2019-04-27T05:13:42.669Z,34.77
2019-04-27T05:16:13.873Z,32.80
2019-04-27T05:18:45.128Z,37.28
2019-04-27T05:21:22.366Z,33.87
2019-04-27T05:23:53.677Z,31.62
2019-04-27T05:26:24.956Z,31.13
2019-04-27T05:28:56.221Z,32.93
2019-04-27T05:31:27.407Z,33.92
2019-04-27T05:33:59.347Z,34.20
2019-04-27T05:36:30.755Z,36.93
2019-04-27T05:39:01.975Z,35.08
2019-04-27T05:41:37.554Z,34.50
2019-04-27T05:44:21.510Z,34.70
2019-04-27T05:47:20.655Z,31.95
2019-04-27T05:50:13.499Z,30.95
2019-04-27T05:52:43.724Z,33.53
2019-04-27T05:55:14.983Z,35.80
2019-04-27T05:57:46.211Z,32.28
2019-04-27T06:00:19.399Z,31.27
2019-04-27T06:02:52.197Z,37.08
2019-04-27T06:05:23.484Z,38.25
2019-04-27T06:07:54.803Z,34.13
2019-04-27T06:10:26.013Z,34.58
2019-04-27T06:12:57.225Z,35.75
2019-04-27T06:15:30.139Z,37.00
2019-04-27T06:18:01.526Z,34.45
2019-04-27T06:20:32.873Z,34.50
2019-04-27T06:23:05.175Z,34.60
2019-04-27T06:25:36.423Z,34.00
2019-04-27T06:28:09.226Z,34.00
2019-04-27T06:30:40.543Z,37.03
2019-04-27T06:33:11.793Z,32.90
2019-04-27T06:35:43.009Z,34.03
2019-04-27T06:38:14.192Z,37.13
2019-04-27T06:40:45.391Z,36.60
2019-04-27T06:43:16.702Z,34.23
2019-04-27T06:45:48.826Z,35.10
2019-04-27T06:48:20.172Z,34.13
2019-04-27T06:51:02.569Z,35.48
2019-04-27T06:53:24.247Z,36.67
2019-04-27T06:55:55.634Z,35.15
2019-04-27T06:58:26.877Z,36.13
2019-04-27T07:00:59.505Z,35.90
2019-04-27T07:03:31.226Z,38.73
2019-04-27T07:06:02.823Z,37.73
2019-04-27T07:08:34.087Z,31.42
2019-04-27T07:11:05.341Z,34.00
2019-04-27T07:13:36.655Z,34.58
2019-04-27T07:16:09.626Z,36.10
2019-04-27T07:18:41.393Z,33.75
2019-04-27T07:21:18.820Z,34.65
2019-04-27T07:23:59.536Z,34.08
2019-04-27T07:26:30.992Z,33.80
2019-04-27T07:29:02.513Z,34.17
2019-04-27T07:31:33.794Z,32.33
2019-04-27T07:34:05.152Z,30.48
2019-04-27T07:36:36.448Z,31.77
2019-04-27T07:39:11.170Z,31.60
2019-04-27T07:41:42.063Z,33.30
2019-04-27T07:44:19.677Z,31.30
2019-04-27T07:47:09.734Z,30.12
2019-04-27T07:49:41.009Z,30.85
2019-04-27T07:52:12.287Z,26.60
2019-04-27T07:54:43.460Z,33.18
2019-04-27T07:57:14.869Z,33.63
2019-04-27T07:59:46.348Z,32.90
2019-04-27T08:02:19.001Z,31.07
2019-04-27T08:04:50.659Z,29.85
2019-04-27T08:07:22.062Z,32.58
2019-04-27T08:09:53.272Z,31.37
2019-04-27T08:12:24.533Z,31.93
2019-04-27T08:14:55.886Z,29.20
2019-04-27T08:17:28.352Z,28.57
2019-04-27T08:20:00.187Z,27.90
2019-04-27T08:22:31.422Z,25.68
2019-04-27T08:25:02.599Z,30.33
2019-04-27T08:27:41.015Z,28.83
2019-04-27T08:30:26.343Z,27.20
2019-04-27T08:32:59.232Z,27.17
2019-04-27T08:35:32.693Z,25.80
2019-04-27T08:38:03.456Z,29.12
2019-04-27T08:40:34.719Z,26.70
2019-04-27T08:43:09.065Z,27.27
2019-04-27T08:45:40.111Z,23.73
2019-04-27T08:48:11.341Z,23.38
2019-04-27T08:50:42.601Z,24.63
2019-04-27T08:53:13.850Z,26.62
2019-04-27T08:55:45.137Z,23.83
2019-04-27T08:58:16.403Z,30.17
2019-04-27T09:00:49.073Z,21.57
2019-04-27T09:03:20.475Z,22.93
2019-04-27T09:05:51.677Z,23.35
2019-04-27T09:08:29.138Z,27.35
2019-04-27T09:11:16.721Z,24.75
2019-04-27T09:14:09.056Z,24.98
2019-04-27T09:17:02.842Z,22.85
2019-04-27T09:19:52.311Z,21.93
2019-04-27T09:22:24.497Z,17.70
2019-04-27T09:24:55.746Z,17.05
2019-04-27T09:27:28.902Z,11.90
2019-04-27T09:29:59.974Z,13.68
2019-04-27T09:32:31.277Z,17.10
2019-04-27T09:35:02.490Z,15.68
2019-04-27T09:37:36.539Z,21.35
2019-04-27T09:40:08.294Z,17.00
2019-04-27T09:42:39.712Z,18.50
2019-04-27T09:45:11.289Z,21.45
2019-04-27T09:47:42.801Z,18.15
2019-04-27T09:50:16.166Z,21.07
2019-04-27T09:52:47.413Z,17.52
2019-04-27T09:55:18.642Z,20.37
2019-04-27T09:57:49.935Z,17.52
2019-04-27T10:00:21.263Z,16.83
2019-04-27T10:02:52.606Z,17.43
2019-04-27T10:05:23.797Z,16.33
2019-04-27T10:07:56.730Z,18.70
2019-04-27T10:10:28.005Z,19.92
2019-04-27T10:12:59.250Z,15.72
2019-04-27T10:15:30.623Z,11.43
2019-04-27T10:18:01.776Z,11.25
2019-04-27T10:20:38.280Z,13.25
2019-04-27T10:23:06.438Z,10.23
2019-04-27T10:25:37.974Z,9.08
2019-04-27T10:28:09.194Z,10.83
2019-04-27T10:30:40.473Z,13.25
2019-04-27T10:33:11.763Z,10.44
2019-04-27T10:35:43.070Z,8.25
2019-04-27T10:38:15.372Z,10.58
2019-04-27T10:40:47.326Z,9.28
2019-04-27T10:43:18.475Z,9.27
2019-04-27T10:45:49.774Z,14.77
2019-04-27T10:48:20.975Z,12.10
2019-04-27T10:50:52.219Z,10.25
2019-04-27T10:53:23.348Z,9.90
2019-04-27T10:55:56.421Z,9.55
2019-04-27T10:58:27.531Z,12.70
2019-04-27T11:01:00.581Z,13.85
2019-04-27T11:03:49.647Z,12.78
2019-04-27T11:06:31.875Z,13.72
2019-04-27T11:09:06.043Z,10.57
2019-04-27T11:11:37.709Z,11.85
2019-04-27T11:14:09.065Z,9.53
2019-04-27T11:16:40.358Z,10.58
2019-04-27T11:19:11.571Z,10.75
2019-04-27T11:21:42.812Z,7.87
2019-04-27T11:24:14.037Z,7.33
2019-04-27T11:26:46.566Z,7.65
2019-04-27T11:29:17.817Z,11.53
2019-04-27T11:31:49.030Z,6.80
2019-04-27T11:34:21.873Z,6.50
2019-04-27T11:36:59.267Z,8.38
2019-04-27T11:39:30.513Z,6.20
2019-04-27T11:42:01.766Z,7.17
2019-04-27T11:44:32.964Z,2.92
2019-04-27T11:47:05.839Z,4.40
2019-04-27T11:49:37.218Z,1.90
2019-04-27T11:52:08.412Z,2.30
2019-04-27T11:54:39.610Z,1.98
2019-04-27T11:57:10.877Z,2.40
2019-04-27T11:59:43.200Z,2.40
2019-04-27T12:02:15.587Z,2.70
2019-04-27T12:04:47.321Z,2.15
2019-04-27T12:07:17.449Z,3.83
2019-04-27T12:09:48.416Z,2.10
2019-04-27T12:12:21.944Z,1.80
2019-04-27T12:14:53.260Z,2.12
2019-04-27T12:17:27.614Z,3.72
2019-04-27T12:19:57.318Z,4.37
2019-04-27T12:22:28.499Z,4.08
2019-04-27T12:24:59.733Z,3.02
2019-04-27T12:27:51.285Z,2.70
2019-04-27T12:30:32.999Z,3.20
2019-04-27T12:33:04.246Z,2.60
2019-04-27T12:35:36.847Z,3.15
2019-04-27T12:38:09.113Z,3.20
2019-04-27T12:40:40.333Z,2.70
2019-04-27T12:43:11.557Z,3.23
2019-04-27T12:45:43.720Z,3.90
2019-04-27T12:48:15.518Z,3.97
2019-04-27T12:50:46.793Z,3.58
2019-04-27T12:53:25.091Z,4.83
2019-04-27T12:56:21.361Z,4.37
2019-04-27T12:59:11.491Z,4.35
2019-04-27T13:01:42.642Z,3.98
2019-04-27T13:04:13.840Z,3.80
2019-04-27T13:06:46.895Z,4.30
2019-04-27T13:09:17.923Z,4.47
2019-04-27T13:11:49.150Z,4.50
2019-04-27T13:14:20.395Z,4.70
2019-04-27T13:16:51.564Z,6.45
2019-04-27T13:19:23.083Z,5.20
2019-04-27T13:21:55.912Z,6.78
2019-04-27T13:24:28.201Z,7.22
2019-04-27T13:26:59.465Z,6.13
2019-04-27T13:29:30.648Z,5.80
2019-04-27T13:32:01.879Z,6.15
2019-04-27T13:34:33.086Z,12.20
2019-04-27T13:37:06.494Z,37.30
2019-04-27T13:39:37.798Z,51.35
2019-04-27T13:42:09.002Z,24.53
2019-04-27T13:44:40.139Z,31.50
2019-04-27T13:47:25.326Z,14.52
2019-04-27T13:50:18.560Z,9.78
2019-04-27T13:52:49.848Z,24.32
2019-04-27T13:55:22.049Z,9.97
2019-04-27T13:57:53.212Z,10.85
2019-04-27T14:00:24.474Z,17.30
2019-04-27T14:02:57.364Z,9.20
2019-04-27T14:05:28.626Z,5.47
2019-04-27T14:07:59.805Z,7.30
2019-04-27T14:10:31.037Z,21.80
2019-04-27T14:13:03.194Z,12.75
2019-04-27T14:15:34.375Z,15.72
2019-04-27T14:18:05.585Z,18.48
2019-04-27T14:20:38.437Z,129.20
2019-04-27T14:23:13.260Z,142.62
2019-04-27T14:25:44.496Z,114.35
2019-04-27T14:28:15.680Z,20.85
2019-04-27T14:30:48.693Z,8.43
2019-04-27T14:33:20.059Z,10.27
2019-04-27T14:35:51.263Z,8.67
2019-04-27T14:38:22.506Z,7.70
2019-04-27T14:40:56.306Z,7.15
2019-04-27T14:43:28.593Z,5.37
2019-04-27T14:45:59.821Z,4.40
2019-04-27T14:48:31.163Z,7.28
2019-04-27T14:51:02.381Z,3.80
2019-04-27T14:53:33.627Z,3.83
2019-04-27T14:56:04.826Z,3.72
2019-04-27T14:58:36.173Z,2.75
2019-04-27T15:01:08.226Z,3.12
2019-04-27T15:03:39.466Z,2.72
2019-04-27T15:06:10.750Z,2.55
2019-04-27T15:08:42.591Z,2.05
2019-04-27T15:11:19.086Z,2.60
2019-04-27T15:13:50.150Z,2.50
2019-04-27T15:16:21.801Z,2.47
2019-04-27T15:18:57.595Z,1.85
2019-04-27T15:21:32.675Z,2.62
2019-04-27T15:24:09.083Z,2.70
2019-04-27T15:26:34.640Z,3.05
2019-04-27T15:29:07.001Z,3.47
2019-04-27T15:31:45.323Z,17.80
2019-04-27T15:34:40.063Z,4.47
2019-04-27T15:37:20.931Z,3.53
2019-04-27T15:40:14.162Z,2.70
2019-04-27T15:42:52.908Z,3.05
2019-04-27T15:45:24.427Z,6.37
2019-04-27T15:47:55.784Z,5.42
2019-04-27T15:50:30.304Z,3.65
2019-04-27T15:53:02.864Z,4.22
2019-04-27T15:55:36.899Z,3.60
2019-04-27T15:58:08.201Z,3.55
2019-04-27T16:00:39.910Z,5.70
2019-04-27T16:03:11.079Z,5.64
2019-04-27T16:05:42.343Z,4.58
2019-04-27T16:08:15.700Z,6.20
2019-04-27T16:10:48.607Z,3.47
2019-04-27T16:13:19.637Z,3.53
2019-04-27T16:15:54.079Z,7.57
2019-04-27T16:18:24.487Z,3.05
2019-04-27T16:20:58.482Z,5.37
2019-04-27T16:23:33.589Z,3.25
2019-04-27T16:26:04.992Z,5.23
2019-04-27T16:28:37.635Z,4.55
2019-04-27T16:31:08.858Z,7.20
2019-04-27T16:33:40.193Z,3.80
2019-04-27T16:36:12.323Z,3.33
2019-04-27T16:38:57.205Z,2.80
2019-04-27T16:41:28.380Z,2.83
2019-04-27T16:44:02.268Z,3.80
2019-04-27T16:46:34.952Z,3.25
2019-04-27T16:49:07.299Z,3.98
2019-04-27T16:51:40.360Z,3.62
2019-04-27T16:54:17.520Z,3.20
2019-04-27T16:56:45.573Z,3.77
2019-04-27T17:01:50.625Z,3.33
2019-04-27T17:04:23.464Z,3.22
2019-04-27T17:06:54.663Z,3.00
2019-04-27T17:09:25.988Z,2.65
2019-04-27T17:11:59.275Z,2.42
2019-04-27T17:14:49.510Z,2.22
2019-04-27T17:17:47.154Z,2.63
2019-04-27T17:20:21.227Z,2.50
2019-04-27T17:22:53.347Z,2.58
2019-04-27T17:25:24.688Z,3.17
2019-04-27T17:28:04.140Z,2.85
2019-04-27T17:30:37.934Z,2.72
2019-04-27T17:33:28.840Z,2.80
2019-04-27T17:36:02.772Z,2.83
2019-04-27T17:38:33.226Z,2.52
2019-04-27T17:41:08.531Z,2.45
2019-04-27T17:43:41.495Z,4.08
2019-04-27T17:46:11.502Z,3.47
2019-04-27T17:48:43.497Z,2.92
2019-04-27T17:51:14.708Z,2.87
2019-04-27T17:53:49.715Z,3.55
2019-04-27T17:56:19.000Z,2.97
2019-04-27T17:58:52.308Z,2.98
2019-04-27T18:01:29.297Z,2.93
2019-04-27T18:04:00.114Z,3.40
2019-04-27T18:06:30.715Z,3.05
2019-04-27T18:09:03.445Z,2.90
2019-04-27T18:11:37.346Z,3.30
2019-04-27T18:14:14.353Z,2.35
2019-04-27T18:16:42.633Z,2.77
2019-04-27T18:19:19.614Z,2.10
2019-04-27T18:22:15.517Z,2.50
2019-04-27T18:25:09.559Z,2.20
2019-04-27T18:27:59.075Z,2.10
2019-04-27T18:30:42.052Z,1.77
2019-04-27T18:33:11.969Z,2.27
2019-04-27T18:35:43.228Z,2.30
2019-04-27T18:38:14.462Z,2.40
2019-04-27T18:40:45.693Z,2.00
2019-04-27T18:43:18.591Z,2.47
2019-04-27T18:45:49.911Z,2.12
2019-04-27T18:48:50.248Z,2.20
2019-04-27T18:51:38.417Z,2.17
2019-04-27T18:54:09.775Z,2.47
2019-04-27T18:56:41.755Z,2.37
2019-04-27T18:59:13.108Z,2.73
2019-04-27T19:01:44.365Z,2.65
2019-04-27T19:04:15.610Z,2.60
2019-04-27T19:06:46.879Z,3.05
2019-04-27T19:09:18.693Z,3.47
2019-04-27T19:11:56.070Z,3.50
2019-04-27T19:14:23.248Z,3.58
2019-04-27T19:16:54.490Z,3.40
2019-04-27T19:19:25.691Z,2.95
2019-04-27T19:21:58.767Z,3.30
2019-04-27T19:24:29.911Z,3.12
2019-04-27T19:27:17.682Z,3.50
2019-04-27T19:29:49.998Z,3.50
2019-04-27T19:32:21.194Z,3.33
2019-04-27T19:34:52.431Z,3.27
2019-04-27T19:37:23.676Z,3.73
2019-04-27T19:39:54.933Z,3.40
2019-04-27T19:42:26.229Z,3.53
2019-04-27T19:44:57.634Z,3.60
2019-04-27T19:47:29.952Z,4.35
2019-04-27T19:50:01.545Z,3.83
2019-04-27T19:52:32.953Z,3.93
2019-04-27T19:55:05.326Z,3.83
2019-04-27T19:57:39.357Z,4.22
2019-04-27T20:00:20.803Z,4.42
2019-04-27T20:02:52.513Z,4.58
2019-04-27T20:05:23.978Z,5.63
2019-04-27T20:07:55.580Z,5.83
2019-04-27T20:10:26.922Z,6.30
2019-04-27T20:12:58.221Z,7.85
2019-04-27T20:15:29.637Z,7.45
2019-04-27T20:18:00.984Z,7.35
2019-04-27T20:20:33.458Z,7.28
2019-04-27T20:23:04.716Z,6.42
2019-04-27T20:25:36.094Z,7.55
2019-04-27T20:28:07.673Z,6.33
2019-04-27T20:30:39.397Z,7.47
2019-04-27T20:33:11.180Z,6.95
2019-04-27T20:35:42.744Z,9.13
2019-04-27T20:38:14.132Z,8.23
2019-04-27T20:40:45.406Z,8.45
2019-04-27T20:43:17.637Z,8.95
2019-04-27T20:45:48.951Z,8.70
2019-04-27T20:48:21.217Z,8.50
2019-04-27T20:50:52.529Z,8.65
2019-04-27T20:53:28.189Z,9.57
2019-04-27T20:55:59.835Z,8.77
2019-04-27T20:58:31.359Z,7.53
2019-04-27T21:01:03.150Z,8.78
2019-04-27T21:03:40.984Z,7.67
2019-04-27T21:06:17.917Z,8.57
2019-04-27T21:08:51.346Z,6.78
2019-04-27T21:11:22.453Z,7.23
2019-04-27T21:13:56.747Z,6.92
2019-04-27T21:16:26.900Z,11.08
2019-04-27T21:18:58.194Z,10.25
2019-04-27T21:21:29.448Z,6.70
2019-04-27T21:24:00.816Z,7.90
2019-04-27T21:26:32.264Z,7.17
2019-04-27T21:29:03.713Z,7.20
2019-04-27T21:31:35.176Z,9.55
2019-04-27T21:34:07.216Z,10.50
2019-04-27T21:36:40.839Z,8.23
2019-04-27T21:39:12.200Z,12.07
2019-04-27T21:41:45.242Z,10.78
2019-04-27T21:44:16.718Z,9.73
2019-04-27T21:46:48.035Z,13.98
2019-04-27T21:49:21.136Z,8.27
2019-04-27T21:52:03.785Z,9.33
2019-04-27T21:54:35.818Z,12.78
2019-04-27T21:57:07.235Z,11.22
2019-04-27T21:59:38.655Z,10.48
2019-04-27T22:02:12.105Z,13.93
2019-04-27T22:04:44.033Z,9.38
2019-04-27T22:07:16.786Z,13.97
2019-04-27T22:09:48.163Z,13.15
2019-04-27T22:12:21.321Z,12.73
2019-04-27T22:14:53.947Z,10.70
2019-04-27T22:17:25.432Z,9.33
2019-04-27T22:19:57.618Z,11.83
2019-04-27T22:22:36.369Z,12.45
2019-04-27T22:25:11.654Z,12.60
2019-04-27T22:27:43.177Z,9.45
2019-04-27T22:30:14.663Z,13.13
2019-04-27T22:32:46.159Z,13.93
2019-04-27T22:35:17.507Z,15.27
2019-04-27T22:37:49.074Z,12.20
2019-04-27T22:40:57.878Z,14.93
2019-04-27T22:44:06.291Z,10.45
2019-04-27T22:46:38.359Z,12.53
2019-04-27T22:49:10.932Z,13.27
2019-04-27T22:51:43.164Z,12.07
2019-04-27T22:54:14.590Z,11.80
2019-04-27T22:56:47.150Z,12.78
2019-04-27T22:59:23.748Z,8.97
2019-04-27T23:02:12.849Z,12.37
2019-04-27T23:04:48.294Z,8.48
2019-04-27T23:07:21.208Z,13.70
2019-04-27T23:09:52.616Z,9.05
2019-04-27T23:12:24.046Z,9.60
2019-04-27T23:14:55.256Z,10.45
2019-04-27T23:17:38.287Z,9.88
2019-04-27T23:20:11.492Z,8.68
2019-04-27T23:22:42.391Z,9.80
2019-04-27T23:25:13.643Z,8.95
2019-04-27T23:27:44.810Z,9.48
2019-04-27T23:30:16.859Z,9.18
2019-04-27T23:32:51.297Z,9.37
2019-04-27T23:35:22.383Z,9.23
2019-04-27T23:37:53.544Z,10.70
2019-04-27T23:40:24.807Z,8.10
2019-04-27T23:42:56.177Z,10.97
2019-04-27T23:45:27.359Z,7.62
2019-04-27T23:47:58.671Z,10.03
2019-04-27T23:50:31.785Z,10.20
2019-04-27T23:53:12.107Z,8.43
2019-04-27T23:55:43.518Z,9.70
2019-04-27T23:58:16.283Z,8.87
